sensor_id;sensor_type;location;lat;lon;timestamp;pressure;altitude;pressure_sealevel;temperature
23992;BMP280;12205;50.600;4.608;2023-07-02T00:00:00;99509.22;;;16.35
23992;BMP280;12205;50.600;4.608;2023-07-02T00:02:34;99505.44;;;16.29
23992;BMP280;12205;50.600;4.608;2023-07-02T00:05:02;99500.34;;;16.35
23992;BMP280;12205;50.600;4.608;2023-07-02T00:07:29;99497.72;;;16.31
23992;BMP280;12205;50.600;4.608;2023-07-02T00:09:57;99499.66;;;16.30
23992;BMP280;12205;50.600;4.608;2023-07-02T00:12:24;99497.34;;;16.29
23992;BMP280;12205;50.600;4.608;2023-07-02T00:14:51;99490.13;;;16.26
23992;BMP280;12205;50.600;4.608;2023-07-02T00:17:19;99491.78;;;16.20
23992;BMP280;12205;50.600;4.608;2023-07-02T00:19:46;99496.31;;;16.23
23992;BMP280;12205;50.600;4.608;2023-07-02T00:22:17;99488.22;;;16.23
23992;BMP280;12205;50.600;4.608;2023-07-02T00:24:44;99496.44;;;16.16
23992;BMP280;12205;50.600;4.608;2023-07-02T00:27:12;99486.47;;;16.12
23992;BMP280;12205;50.600;4.608;2023-07-02T00:29:40;99492.25;;;16.15
23992;BMP280;12205;50.600;4.608;2023-07-02T00:32:07;99493.69;;;16.19
23992;BMP280;12205;50.600;4.608;2023-07-02T00:34:34;99488.72;;;16.18
23992;BMP280;12205;50.600;4.608;2023-07-02T00:37:01;99494.97;;;16.11
23992;BMP280;12205;50.600;4.608;2023-07-02T00:39:28;99481.94;;;16.09
23992;BMP280;12205;50.600;4.608;2023-07-02T00:42:01;99491.81;;;16.16
23992;BMP280;12205;50.600;4.608;2023-07-02T00:44:29;99485.31;;;16.13
23992;BMP280;12205;50.600;4.608;2023-07-02T00:46:57;99485.66;;;16.16
23992;BMP280;12205;50.600;4.608;2023-07-02T00:49:24;99487.16;;;16.17
23992;BMP280;12205;50.600;4.608;2023-07-02T00:51:52;99489.56;;;16.15
23992;BMP280;12205;50.600;4.608;2023-07-02T00:54:19;99491.81;;;16.16
23992;BMP280;12205;50.600;4.608;2023-07-02T00:56:46;99492.56;;;16.17
23992;BMP280;12205;50.600;4.608;2023-07-02T00:59:14;99490.47;;;16.04
23992;BMP280;12205;50.600;4.608;2023-07-02T01:01:43;99479.38;;;16.02
23992;BMP280;12205;50.600;4.608;2023-07-02T01:04:18;99478.28;;;15.96
23992;BMP280;12205;50.600;4.608;2023-07-02T01:06:45;99471.50;;;15.88
23992;BMP280;12205;50.600;4.608;2023-07-02T01:09:12;99463.91;;;15.83
23992;BMP280;12205;50.600;4.608;2023-07-02T01:11:43;99466.25;;;15.81
23992;BMP280;12205;50.600;4.608;2023-07-02T01:14:12;99461.72;;;15.74
23992;BMP280;12205;50.600;4.608;2023-07-02T01:16:43;99459.81;;;15.74
23992;BMP280;12205;50.600;4.608;2023-07-02T01:19:16;99457.94;;;15.71
23992;BMP280;12205;50.600;4.608;2023-07-02T01:21:47;99465.22;;;15.74
23992;BMP280;12205;50.600;4.608;2023-07-02T01:24:16;99469.06;;;15.73
23992;BMP280;12205;50.600;4.608;2023-07-02T01:26:44;99469.91;;;15.70
23992;BMP280;12205;50.600;4.608;2023-07-02T01:29:18;99472.72;;;15.63
23992;BMP280;12205;50.600;4.608;2023-07-02T01:31:47;99468.94;;;15.57
23992;BMP280;12205;50.600;4.608;2023-07-02T01:34:14;99456.75;;;15.49
23992;BMP280;12205;50.600;4.608;2023-07-02T01:36:41;99452.88;;;15.50
23992;BMP280;12205;50.600;4.608;2023-07-02T01:39:10;99456.41;;;15.47
23992;BMP280;12205;50.600;4.608;2023-07-02T01:41:43;99445.16;;;15.52
23992;BMP280;12205;50.600;4.608;2023-07-02T01:44:10;99441.72;;;15.51
23992;BMP280;12205;50.600;4.608;2023-07-02T01:46:37;99455.84;;;15.59
23992;BMP280;12205;50.600;4.608;2023-07-02T01:49:05;99449.34;;;15.57
23992;BMP280;12205;50.600;4.608;2023-07-02T01:51:32;99442.81;;;15.54
23992;BMP280;12205;50.600;4.608;2023-07-02T01:54:00;99442.81;;;15.54
23992;BMP280;12205;50.600;4.608;2023-07-02T01:56:28;99435.91;;;15.53
23992;BMP280;12205;50.600;4.608;2023-07-02T01:58:55;99439.78;;;15.52
23992;BMP280;12205;50.600;4.608;2023-07-02T02:01:23;99433.63;;;15.51
23992;BMP280;12205;50.600;4.608;2023-07-02T02:03:50;99425.94;;;15.50
23992;BMP280;12205;50.600;4.608;2023-07-02T02:06:17;99428.66;;;15.50
23992;BMP280;12205;50.600;4.608;2023-07-02T02:08:45;99429.50;;;15.47
23992;BMP280;12205;50.600;4.608;2023-07-02T02:11:12;99428.31;;;15.48
23992;BMP280;12205;50.600;4.608;2023-07-02T02:13:40;99427.56;;;15.44
23992;BMP280;12205;50.600;4.608;2023-07-02T02:16:07;99418.50;;;15.34
23992;BMP280;12205;50.600;4.608;2023-07-02T02:18:34;99426.97;;;15.36
23992;BMP280;12205;50.600;4.608;2023-07-02T02:21:01;99419.28;;;15.34
23992;BMP280;12205;50.600;4.608;2023-07-02T02:23:28;99420.00;;;15.39
23992;BMP280;12205;50.600;4.608;2023-07-02T02:25:55;99421.50;;;15.40
23992;BMP280;12205;50.600;4.608;2023-07-02T02:28:22;99419.19;;;15.42
23992;BMP280;12205;50.600;4.608;2023-07-02T02:30:51;99426.06;;;15.43
23992;BMP280;12205;50.600;4.608;2023-07-02T02:33:20;99420.00;;;15.39
23992;BMP280;12205;50.600;4.608;2023-07-02T02:35:48;99419.22;;;15.38
23992;BMP280;12205;50.600;4.608;2023-07-02T02:38:15;99407.69;;;15.38
23992;BMP280;12205;50.600;4.608;2023-07-02T02:40:42;99412.59;;;15.43
23992;BMP280;12205;50.600;4.608;2023-07-02T02:43:13;99415.28;;;15.43
23992;BMP280;12205;50.600;4.608;2023-07-02T02:45:44;99414.09;;;15.44
23992;BMP280;12205;50.600;4.608;2023-07-02T02:48:13;99406.88;;;15.41
23992;BMP280;12205;50.600;4.608;2023-07-02T02:50:40;99411.41;;;15.44
23992;BMP280;12205;50.600;4.608;2023-07-02T02:53:10;99409.00;;;15.49
23992;BMP280;12205;50.600;4.608;2023-07-02T02:55:37;99411.34;;;15.51
23992;BMP280;12205;50.600;4.608;2023-07-02T02:58:04;99412.78;;;15.55
23992;BMP280;12205;50.600;4.608;2023-07-02T03:00:31;99411.13;;;15.62
23992;BMP280;12205;50.600;4.608;2023-07-02T03:02:59;99422.69;;;15.62
23992;BMP280;12205;50.600;4.608;2023-07-02T03:05:27;99425.84;;;15.57
23992;BMP280;12205;50.600;4.608;2023-07-02T03:07:55;99427.38;;;15.58
23992;BMP280;12205;50.600;4.608;2023-07-02T03:10:22;99425.50;;;15.55
23992;BMP280;12205;50.600;4.608;2023-07-02T03:12:49;99428.19;;;15.55
23992;BMP280;12205;50.600;4.608;2023-07-02T03:15:16;99426.66;;;15.54
23992;BMP280;12205;50.600;4.608;2023-07-02T03:17:43;99434.31;;;15.55
23992;BMP280;12205;50.600;4.608;2023-07-02T03:20:11;99418.13;;;15.59
23992;BMP280;12205;50.600;4.608;2023-07-02T03:22:39;99427.22;;;15.65
23992;BMP280;12205;50.600;4.608;2023-07-02T03:25:08;99429.59;;;15.63
23992;BMP280;12205;50.600;4.608;2023-07-02T03:27:35;99429.59;;;15.63
23992;BMP280;12205;50.600;4.608;2023-07-02T03:30:03;99425.72;;;15.64
23992;BMP280;12205;50.600;4.608;2023-07-02T03:32:30;99445.78;;;15.63
23992;BMP280;12205;50.600;4.608;2023-07-02T03:34:57;99435.00;;;15.63
23992;BMP280;12205;50.600;4.608;2023-07-02T03:37:24;99433.56;;;15.55
23992;BMP280;12205;50.600;4.608;2023-07-02T03:39:52;99434.72;;;15.54
23992;BMP280;12205;50.600;4.608;2023-07-02T03:42:19;99437.44;;;15.54
23992;BMP280;12205;50.600;4.608;2023-07-02T03:44:47;99439.06;;;15.48
23992;BMP280;12205;50.600;4.608;2023-07-02T03:47:14;99439.88;;;15.45
23992;BMP280;12205;50.600;4.608;2023-07-02T03:49:42;99429.94;;;15.42
23992;BMP280;12205;50.600;4.608;2023-07-02T03:52:09;99437.66;;;15.40
23992;BMP280;12205;50.600;4.608;2023-07-02T03:54:36;99436.91;;;15.39
23992;BMP280;12205;50.600;4.608;2023-07-02T03:57:05;99439.25;;;15.37
23992;BMP280;12205;50.600;4.608;2023-07-02T03:59:32;99438.84;;;15.39
23992;BMP280;12205;50.600;4.608;2023-07-02T04:01:59;99443.03;;;15.40
23992;BMP280;12205;50.600;4.608;2023-07-02T04:04:26;99438.50;;;15.37
23992;BMP280;12205;50.600;4.608;2023-07-02T04:06:53;99441.19;;;15.37
23992;BMP280;12205;50.600;4.608;2023-07-02T04:09:20;99448.41;;;15.40
23992;BMP280;12205;50.600;4.608;2023-07-02T04:11:47;99449.59;;;15.39
23992;BMP280;12205;50.600;4.608;2023-07-02T04:14:16;99445.28;;;15.45
23992;BMP280;12205;50.600;4.608;2023-07-02T04:16:45;99456.34;;;15.50
23992;BMP280;12205;50.600;4.608;2023-07-02T04:19:12;99457.00;;;15.58
23992;BMP280;12205;50.600;4.608;2023-07-02T04:21:39;99468.81;;;15.64
23992;BMP280;12205;50.600;4.608;2023-07-02T04:24:06;99468.78;;;15.68
23992;BMP280;12205;50.600;4.608;2023-07-02T04:26:33;99479.59;;;15.64
23992;BMP280;12205;50.600;4.608;2023-07-02T04:29:02;99475.72;;;15.65
23992;BMP280;12205;50.600;4.608;2023-07-02T04:31:31;99483.47;;;15.63
23992;BMP280;12205;50.600;4.608;2023-07-02T04:33:58;99484.25;;;15.60
23992;BMP280;12205;50.600;4.608;2023-07-02T04:36:25;99481.66;;;15.57
23992;BMP280;12205;50.600;4.608;2023-07-02T04:38:52;99477.41;;;15.59
23992;BMP280;12205;50.600;4.608;2023-07-02T04:41:19;99479.66;;;15.61
23992;BMP280;12205;50.600;4.608;2023-07-02T04:43:47;99480.47;;;15.58
23992;BMP280;12205;50.600;4.608;2023-07-02T04:46:14;99485.81;;;15.61
23992;BMP280;12205;50.600;4.608;2023-07-02T04:48:42;99484.25;;;15.60
23992;BMP280;12205;50.600;4.608;2023-07-02T04:51:09;99485.00;;;15.64
23992;BMP280;12205;50.600;4.608;2023-07-02T04:53:36;99497.28;;;15.65
23992;BMP280;12205;50.600;4.608;2023-07-02T04:56:04;99489.56;;;15.67
23992;BMP280;12205;50.600;4.608;2023-07-02T04:58:31;99494.00;;;15.78
23992;BMP280;12205;50.600;4.608;2023-07-02T05:00:59;99500.13;;;15.82
23992;BMP280;12205;50.600;4.608;2023-07-02T05:03:26;99498.16;;;15.82
23992;BMP280;12205;50.600;4.608;2023-07-02T05:05:55;99500.66;;;15.93
23992;BMP280;12205;50.600;4.608;2023-07-02T05:08:23;99507.75;;;15.87
23992;BMP280;12205;50.600;4.608;2023-07-02T05:10:50;99513.44;;;15.89
23992;BMP280;12205;50.600;4.608;2023-07-02T05:13:17;99521.97;;;15.87
23992;BMP280;12205;50.600;4.608;2023-07-02T05:15:44;99516.03;;;15.96
23992;BMP280;12205;50.600;4.608;2023-07-02T05:18:12;99530.69;;;15.95
23992;BMP280;12205;50.600;4.608;2023-07-02T05:20:39;99529.75;;;16.05
23992;BMP280;12205;50.600;4.608;2023-07-02T05:23:08;99526.56;;;16.10
23992;BMP280;12205;50.600;4.608;2023-07-02T05:25:35;99541.94;;;16.13
23992;BMP280;12205;50.600;4.608;2023-07-02T05:28:02;99535.72;;;16.17
23992;BMP280;12205;50.600;4.608;2023-07-02T05:30:29;99538.09;;;16.15
23992;BMP280;12205;50.600;4.608;2023-07-02T05:32:56;99543.47;;;16.15
23992;BMP280;12205;50.600;4.608;2023-07-02T05:35:23;99552.56;;;16.21
23992;BMP280;12205;50.600;4.608;2023-07-02T05:37:50;99560.22;;;16.26
23992;BMP280;12205;50.600;4.608;2023-07-02T05:40:18;99561.69;;;16.30
23992;BMP280;12205;50.600;4.608;2023-07-02T05:42:45;99570.09;;;16.36
23992;BMP280;12205;50.600;4.608;2023-07-02T05:45:13;99580.03;;;16.39
23992;BMP280;12205;50.600;4.608;2023-07-02T05:47:40;99570.78;;;16.40
23992;BMP280;12205;50.600;4.608;2023-07-02T05:50:08;99580.78;;;16.40
23992;BMP280;12205;50.600;4.608;2023-07-02T05:52:35;99594.56;;;16.45
23992;BMP280;12205;50.600;4.608;2023-07-02T05:55:03;99593.13;;;16.37
23992;BMP280;12205;50.600;4.608;2023-07-02T05:57:32;99588.00;;;16.23
23992;BMP280;12205;50.600;4.608;2023-07-02T05:59:59;99587.06;;;16.33
23992;BMP280;12205;50.600;4.608;2023-07-02T06:02:26;99586.84;;;16.24
23992;BMP280;12205;50.600;4.608;2023-07-02T06:04:53;99590.25;;;16.28
23992;BMP280;12205;50.600;4.608;2023-07-02T06:07:20;99582.91;;;16.28
23992;BMP280;12205;50.600;4.608;2023-07-02T06:09:47;99586.97;;;16.40
23992;BMP280;12205;50.600;4.608;2023-07-02T06:12:14;99589.16;;;16.45
23992;BMP280;12205;50.600;4.608;2023-07-02T06:14:43;99597.63;;;16.47
23992;BMP280;12205;50.600;4.608;2023-07-02T06:17:10;99594.94;;;16.47
23992;BMP280;12205;50.600;4.608;2023-07-02T06:19:37;99600.50;;;16.57
23992;BMP280;12205;50.600;4.608;2023-07-02T06:22:04;99618.81;;;16.69
23992;BMP280;12205;50.600;4.608;2023-07-02T06:24:32;99604.97;;;16.67
23992;BMP280;12205;50.600;4.608;2023-07-02T06:26:59;99611.06;;;16.71
23992;BMP280;12205;50.600;4.608;2023-07-02T06:29:26;99619.38;;;16.80
23992;BMP280;12205;50.600;4.608;2023-07-02T06:31:55;99613.75;;;16.91
23992;BMP280;12205;50.600;4.608;2023-07-02T06:34:22;99632.81;;;17.04
23992;BMP280;12205;50.600;4.608;2023-07-02T06:36:50;99635.78;;;17.09
23992;BMP280;12205;50.600;4.608;2023-07-02T06:39:17;99647.19;;;17.17
23992;BMP280;12205;50.600;4.608;2023-07-02T06:41:44;99657.88;;;17.24
23992;BMP280;12205;50.600;4.608;2023-07-02T06:44:11;99669.09;;;17.23
23992;BMP280;12205;50.600;4.608;2023-07-02T06:46:38;99687.84;;;17.10
23992;BMP280;12205;50.600;4.608;2023-07-02T06:49:07;99685.22;;;17.06
23992;BMP280;12205;50.600;4.608;2023-07-02T06:51:34;99684.31;;;17.13
23992;BMP280;12205;50.600;4.608;2023-07-02T06:54:02;99688.06;;;17.19
23992;BMP280;12205;50.600;4.608;2023-07-02T06:56:29;99696.03;;;17.26
23992;BMP280;12205;50.600;4.608;2023-07-02T06:58:57;99692.47;;;17.29
23992;BMP280;12205;50.600;4.608;2023-07-02T07:01:24;99694.69;;;17.35
23992;BMP280;12205;50.600;4.608;2023-07-02T07:03:52;99682.25;;;17.41
23992;BMP280;12205;50.600;4.608;2023-07-02T07:06:20;99696.78;;;17.47
23992;BMP280;12205;50.600;4.608;2023-07-02T07:08:47;99684.34;;;17.70
23992;BMP280;12205;50.600;4.608;2023-07-02T07:11:14;99703.97;;;17.90
23992;BMP280;12205;50.600;4.608;2023-07-02T07:13:41;99712.50;;;18.05
23992;BMP280;12205;50.600;4.608;2023-07-02T07:16:09;99728.31;;;18.23
23992;BMP280;12205;50.600;4.608;2023-07-02T07:18:36;99758.44;;;18.25
23992;BMP280;12205;50.600;4.608;2023-07-02T07:21:03;99760.78;;;18.23
23992;BMP280;12205;50.600;4.608;2023-07-02T07:23:31;99760.66;;;18.30
23992;BMP280;12205;50.600;4.608;2023-07-02T07:25:59;99764.34;;;18.36
23992;BMP280;12205;50.600;4.608;2023-07-02T07:28:26;99756.56;;;18.55
23992;BMP280;12205;50.600;4.608;2023-07-02T07:30:53;99765.88;;;18.70
23992;BMP280;12205;50.600;4.608;2023-07-02T07:33:20;99780.22;;;18.83
23992;BMP280;12205;50.600;4.608;2023-07-02T07:35:47;99783.78;;;18.97
23992;BMP280;12205;50.600;4.608;2023-07-02T07:38:14;99788.16;;;19.07
23992;BMP280;12205;50.600;4.608;2023-07-02T07:40:43;99802.03;;;19.09
23992;BMP280;12205;50.600;4.608;2023-07-02T07:43:11;99807.94;;;19.20
23992;BMP280;12205;50.600;4.608;2023-07-02T07:45:38;99816.38;;;19.22
23992;BMP280;12205;50.600;4.608;2023-07-02T07:48:06;99821.16;;;19.18
23992;BMP280;12205;50.600;4.608;2023-07-02T07:50:33;99827.41;;;19.15
23992;BMP280;12205;50.600;4.608;2023-07-02T07:53:00;99816.22;;;19.30
23992;BMP280;12205;50.600;4.608;2023-07-02T07:55:27;99841.69;;;19.32
23992;BMP280;12205;50.600;4.608;2023-07-02T07:57:56;99832.84;;;19.44
23992;BMP280;12205;50.600;4.608;2023-07-02T08:00:23;99834.16;;;19.53
23992;BMP280;12205;50.600;4.608;2023-07-02T08:02:51;99833.41;;;19.52
23992;BMP280;12205;50.600;4.608;2023-07-02T08:05:21;99831.34;;;19.56
23992;BMP280;12205;50.600;4.608;2023-07-02T08:07:49;99839.28;;;19.63
23992;BMP280;12205;50.600;4.608;2023-07-02T08:10:16;99842.13;;;19.73
23992;BMP280;12205;50.600;4.608;2023-07-02T08:12:43;99840.94;;;19.86
23992;BMP280;12205;50.600;4.608;2023-07-02T08:15:13;99845.75;;;19.95
23992;BMP280;12205;50.600;4.608;2023-07-02T08:17:40;99847.16;;;20.00
23992;BMP280;12205;50.600;4.608;2023-07-02T08:20:08;99849.53;;;20.11
23992;BMP280;12205;50.600;4.608;2023-07-02T08:22:37;99853.78;;;20.12
23992;BMP280;12205;50.600;4.608;2023-07-02T08:25:05;99843.03;;;20.21
23992;BMP280;12205;50.600;4.608;2023-07-02T08:27:32;99850.63;;;20.26
23992;BMP280;12205;50.600;4.608;2023-07-02T08:29:59;99852.28;;;20.49
23992;BMP280;12205;50.600;4.608;2023-07-02T08:32:27;99847.44;;;20.66
23992;BMP280;12205;50.600;4.608;2023-07-02T08:34:54;99852.19;;;20.88
23992;BMP280;12205;50.600;4.608;2023-07-02T08:37:21;99851.94;;;20.95
23992;BMP280;12205;50.600;4.608;2023-07-02T08:39:49;99872.41;;;20.86
23992;BMP280;12205;50.600;4.608;2023-07-02T08:42:16;99861.84;;;20.89
23992;BMP280;12205;50.600;4.608;2023-07-02T08:44:46;99860.97;;;20.92
23992;BMP280;12205;50.600;4.608;2023-07-02T08:47:14;99863.03;;;21.00
23992;BMP280;12205;50.600;4.608;2023-07-02T08:49:43;99869.88;;;21.05
23992;BMP280;12205;50.600;4.608;2023-07-02T08:52:10;99863.38;;;21.24
23992;BMP280;12205;50.600;4.608;2023-07-02T08:54:38;99871.19;;;21.22
23992;BMP280;12205;50.600;4.608;2023-07-02T08:57:06;99867.59;;;21.25
23992;BMP280;12205;50.600;4.608;2023-07-02T08:59:33;99868.34;;;21.26
23992;BMP280;12205;50.600;4.608;2023-07-02T09:02:00;99876.31;;;21.20
23992;BMP280;12205;50.600;4.608;2023-07-02T09:04:27;99873.91;;;21.22
23992;BMP280;12205;50.600;4.608;2023-07-02T09:07:05;99883.47;;;21.05
23992;BMP280;12205;50.600;4.608;2023-07-02T09:09:44;99877.03;;;20.99
23992;BMP280;12205;50.600;4.608;2023-07-02T09:12:23;99887.00;;;21.02
23992;BMP280;12205;50.600;4.608;2023-07-02T09:14:55;99879.84;;;21.08
23992;BMP280;12205;50.600;4.608;2023-07-02T09:17:28;99901.75;;;20.92
23992;BMP280;12205;50.600;4.608;2023-07-02T09:19:57;99903.03;;;20.87
23992;BMP280;12205;50.600;4.608;2023-07-02T09:22:25;99897.09;;;20.79
23992;BMP280;12205;50.600;4.608;2023-07-02T09:24:54;99908.38;;;20.91
23992;BMP280;12205;50.600;4.608;2023-07-02T09:27:34;99886.16;;;20.57
23992;BMP280;12205;50.600;4.608;2023-07-02T09:30:08;99899.06;;;20.40
23992;BMP280;12205;50.600;4.608;2023-07-02T09:32:35;99896.56;;;20.46
23992;BMP280;12205;50.600;4.608;2023-07-02T09:35:04;99893.53;;;20.44
23992;BMP280;12205;50.600;4.608;2023-07-02T09:37:33;99899.91;;;20.63
23992;BMP280;12205;50.600;4.608;2023-07-02T09:40:01;99899.38;;;20.68
23992;BMP280;12205;50.600;4.608;2023-07-02T09:42:31;99902.28;;;20.86
23992;BMP280;12205;50.600;4.608;2023-07-02T09:45:02;99895.09;;;20.93
23992;BMP280;12205;50.600;4.608;2023-07-02T09:47:30;99890.09;;;21.04
23992;BMP280;12205;50.600;4.608;2023-07-02T09:50:03;99894.09;;;20.99
23992;BMP280;12205;50.600;4.608;2023-07-02T09:52:34;99890.88;;;20.92
23992;BMP280;12205;50.600;4.608;2023-07-02T09:55:02;99908.66;;;21.05
23992;BMP280;12205;50.600;4.608;2023-07-02T09:57:31;99889.72;;;21.15
23992;BMP280;12205;50.600;4.608;2023-07-02T09:59:59;99891.63;;;21.27
23992;BMP280;12205;50.600;4.608;2023-07-02T10:02:26;99889.09;;;21.33
23992;BMP280;12205;50.600;4.608;2023-07-02T10:04:53;99897.91;;;21.37
23992;BMP280;12205;50.600;4.608;2023-07-02T10:07:28;99896.81;;;21.34
23992;BMP280;12205;50.600;4.608;2023-07-02T10:09:57;99904.50;;;21.14
23992;BMP280;12205;50.600;4.608;2023-07-02T10:12:27;99919.09;;;21.07
23992;BMP280;12205;50.600;4.608;2023-07-02T10:14:56;99907.19;;;20.92
23992;BMP280;12205;50.600;4.608;2023-07-02T10:17:29;99915.72;;;21.03
23992;BMP280;12205;50.600;4.608;2023-07-02T10:19:58;99902.22;;;21.12
23992;BMP280;12205;50.600;4.608;2023-07-02T10:22:26;99906.94;;;21.34
23992;BMP280;12205;50.600;4.608;2023-07-02T10:24:54;99902.88;;;21.60
23992;BMP280;12205;50.600;4.608;2023-07-02T10:27:36;99902.25;;;21.56
23992;BMP280;12205;50.600;4.608;2023-07-02T10:30:05;99913.25;;;21.75
23992;BMP280;12205;50.600;4.608;2023-07-02T10:32:34;99901.06;;;21.88
23992;BMP280;12205;50.600;4.608;2023-07-02T10:35:12;99911.31;;;22.06
23992;BMP280;12205;50.600;4.608;2023-07-02T10:37:39;99906.34;;;22.14
23992;BMP280;12205;50.600;4.608;2023-07-02T10:40:08;99906.28;;;22.36
23992;BMP280;12205;50.600;4.608;2023-07-02T10:42:47;99905.88;;;22.47
23992;BMP280;12205;50.600;4.608;2023-07-02T10:45:15;99911.78;;;22.55
23992;BMP280;12205;50.600;4.608;2023-07-02T10:47:43;99906.34;;;22.55
23992;BMP280;12205;50.600;4.608;2023-07-02T10:50:18;99906.59;;;22.47
23992;BMP280;12205;50.600;4.608;2023-07-02T10:52:46;99914.31;;;22.49
23992;BMP280;12205;50.600;4.608;2023-07-02T10:55:17;99911.47;;;22.53
23992;BMP280;12205;50.600;4.608;2023-07-02T10:57:46;99904.66;;;22.57
23992;BMP280;12205;50.600;4.608;2023-07-02T11:00:14;99912.69;;;22.61
23992;BMP280;12205;50.600;4.608;2023-07-02T11:02:42;99918.78;;;22.65
23992;BMP280;12205;50.600;4.608;2023-07-02T11:05:09;99911.16;;;22.60
23992;BMP280;12205;50.600;4.608;2023-07-02T11:07:38;99910.13;;;22.57
23992;BMP280;12205;50.600;4.608;2023-07-02T11:10:07;99904.38;;;22.55
23992;BMP280;12205;50.600;4.608;2023-07-02T11:12:34;99912.38;;;22.50
23992;BMP280;12205;50.600;4.608;2023-07-02T11:15:11;99915.31;;;22.24
23992;BMP280;12205;50.600;4.608;2023-07-02T11:17:38;99917.69;;;22.13
23992;BMP280;12205;50.600;4.608;2023-07-02T11:20:07;99910.66;;;21.93
23992;BMP280;12205;50.600;4.608;2023-07-02T11:22:36;99910.66;;;21.93
23992;BMP280;12205;50.600;4.608;2023-07-02T11:25:15;99903.50;;;22.18
23992;BMP280;12205;50.600;4.608;2023-07-02T11:27:43;99908.25;;;22.36
23992;BMP280;12205;50.600;4.608;2023-07-02T11:30:13;99906.50;;;22.51
23992;BMP280;12205;50.600;4.608;2023-07-02T11:32:51;99913.97;;;22.78
23992;BMP280;12205;50.600;4.608;2023-07-02T11:35:19;99902.47;;;22.93
23992;BMP280;12205;50.600;4.608;2023-07-02T11:37:47;99898.81;;;22.86
23992;BMP280;12205;50.600;4.608;2023-07-02T11:40:17;99902.13;;;22.72
23992;BMP280;12205;50.600;4.608;2023-07-02T11:42:44;99894.41;;;22.98
23992;BMP280;12205;50.600;4.608;2023-07-02T11:45:13;99899.44;;;23.09
23992;BMP280;12205;50.600;4.608;2023-07-02T11:47:40;99898.78;;;23.42
23992;BMP280;12205;50.600;4.608;2023-07-02T11:50:08;99896.00;;;23.69
23992;BMP280;12205;50.600;4.608;2023-07-02T11:52:35;99889.47;;;23.76
23992;BMP280;12205;50.600;4.608;2023-07-02T11:55:02;99895.25;;;24.11
23992;BMP280;12205;50.600;4.608;2023-07-02T11:57:30;99895.72;;;24.34
23992;BMP280;12205;50.600;4.608;2023-07-02T11:59:57;99888.03;;;24.23
23992;BMP280;12205;50.600;4.608;2023-07-02T12:02:27;99892.00;;;24.46
23992;BMP280;12205;50.600;4.608;2023-07-02T12:04:54;99911.81;;;24.80
23992;BMP280;12205;50.600;4.608;2023-07-02T12:07:21;99911.25;;;24.91
23992;BMP280;12205;50.600;4.608;2023-07-02T12:09:48;99913.94;;;25.15
23992;BMP280;12205;50.600;4.608;2023-07-02T12:12:15;99896.56;;;25.03
23992;BMP280;12205;50.600;4.608;2023-07-02T12:14:42;99908.66;;;24.97
23992;BMP280;12205;50.600;4.608;2023-07-02T12:17:09;99893.16;;;24.93
23992;BMP280;12205;50.600;4.608;2023-07-02T12:19:40;99893.78;;;25.27
23992;BMP280;12205;50.600;4.608;2023-07-02T12:22:07;99890.47;;;25.23
23992;BMP280;12205;50.600;4.608;2023-07-02T12:24:34;99900.94;;;25.40
23992;BMP280;12205;50.600;4.608;2023-07-02T12:27:01;99906.13;;;25.37
23992;BMP280;12205;50.600;4.608;2023-07-02T12:29:28;99894.81;;;25.45
23992;BMP280;12205;50.600;4.608;2023-07-02T12:31:55;99900.72;;;25.43
23992;BMP280;12205;50.600;4.608;2023-07-02T12:34:22;99918.88;;;25.41
23992;BMP280;12205;50.600;4.608;2023-07-02T12:36:51;99917.88;;;24.99
23992;BMP280;12205;50.600;4.608;2023-07-02T12:39:18;99913.78;;;24.80
23992;BMP280;12205;50.600;4.608;2023-07-02T12:41:45;99909.03;;;25.04
23992;BMP280;12205;50.600;4.608;2023-07-02T12:44:12;99903.00;;;25.59
23992;BMP280;12205;50.600;4.608;2023-07-02T12:46:39;99901.47;;;25.73
23992;BMP280;12205;50.600;4.608;2023-07-02T12:49:06;99906.91;;;25.88
23992;BMP280;12205;50.600;4.608;2023-07-02T12:51:33;99903.13;;;26.00
23992;BMP280;12205;50.600;4.608;2023-07-02T12:54:02;99897.31;;;26.34
23992;BMP280;12205;50.600;4.608;2023-07-02T12:56:29;99900.38;;;26.21
23992;BMP280;12205;50.600;4.608;2023-07-02T12:58:57;99895.03;;;26.53
23992;BMP280;12205;50.600;4.608;2023-07-02T13:01:24;99913.63;;;26.43
23992;BMP280;12205;50.600;4.608;2023-07-02T13:03:51;99901.72;;;26.26
23992;BMP280;12205;50.600;4.608;2023-07-02T13:06:18;99900.84;;;25.99
23992;BMP280;12205;50.600;4.608;2023-07-02T13:08:45;99908.69;;;26.27
23992;BMP280;12205;50.600;4.608;2023-07-02T13:11:13;99907.03;;;26.55
23992;BMP280;12205;50.600;4.608;2023-07-02T13:13:41;99894.00;;;26.71
23992;BMP280;12205;50.600;4.608;2023-07-02T13:16:08;99903.00;;;26.97
23992;BMP280;12205;50.600;4.608;2023-07-02T13:18:35;99912.13;;;27.15
23992;BMP280;12205;50.600;4.608;2023-07-02T13:21:02;99909.13;;;26.60
23992;BMP280;12205;50.600;4.608;2023-07-02T13:23:30;99908.75;;;26.99
23992;BMP280;12205;50.600;4.608;2023-07-02T13:25:57;99904.28;;;26.76
23992;BMP280;12205;50.600;4.608;2023-07-02T13:28:25;99916.22;;;26.32
23992;BMP280;12205;50.600;4.608;2023-07-02T13:30:53;99913.41;;;25.91
23992;BMP280;12205;50.600;4.608;2023-07-02T13:33:21;99925.00;;;25.65
23992;BMP280;12205;50.600;4.608;2023-07-02T13:35:48;99918.59;;;25.68
23992;BMP280;12205;50.600;4.608;2023-07-02T13:38:15;99921.19;;;25.77
23992;BMP280;12205;50.600;4.608;2023-07-02T13:40:42;99912.06;;;25.51
23992;BMP280;12205;50.600;4.608;2023-07-02T13:43:09;99923.22;;;25.32
23992;BMP280;12205;50.600;4.608;2023-07-02T13:45:37;99926.16;;;24.90
23992;BMP280;12205;50.600;4.608;2023-07-02T13:48:05;99907.72;;;25.00
23992;BMP280;12205;50.600;4.608;2023-07-02T13:50:32;99928.88;;;25.44
23992;BMP280;12205;50.600;4.608;2023-07-02T13:52:59;99909.56;;;25.83
23992;BMP280;12205;50.600;4.608;2023-07-02T13:55:26;99900.84;;;25.99
23992;BMP280;12205;50.600;4.608;2023-07-02T13:57:54;99898.22;;;26.46
23992;BMP280;12205;50.600;4.608;2023-07-02T14:00:24;99897.00;;;26.93
23992;BMP280;12205;50.600;4.608;2023-07-02T14:02:51;99905.34;;;27.36
23992;BMP280;12205;50.600;4.608;2023-07-02T14:05:19;99900.63;;;27.74
23992;BMP280;12205;50.600;4.608;2023-07-02T14:07:47;99896.53;;;28.07
23992;BMP280;12205;50.600;4.608;2023-07-02T14:10:15;99903.84;;;28.21
23992;BMP280;12205;50.600;4.608;2023-07-02T14:12:43;99909.78;;;28.03